BAW016 GOOY-SAZB
Flight info
| Callsign | BAW016 |
|---|---|
| Flight time | N/A |
| Altitude | 34000 |
| Route | 11N020W DCT DELAX DCT 02N030W/N0499F360 DCT VUNOK UN873 NTL DCT FROTI DCT LODOT UZ72 EKUMU UZ30 USVOL/N0491F380 UZ30 ENTIT DCT DIDAB DCT CTB DCT NOBEL UM792 CRR DCT MOXAN MOXAN2U |
| Aircraft | A35K/H-SDE2E3GHIJ3J4J5LM1ORWXY/LB1D1 |
Departure
| Time | N/A |
|---|---|
| Airport | Léopold Sédar Senghor International Airport (GOOY) |
Arrival
| Time | 2026-05-05 23:34 |
|---|---|
| Airport | Comandante Espora Airport (SAZB) |
| Time | Latitude | Longitude | Altitude | Speed | Heading |
|---|---|---|---|---|---|
| 2026-05-05 21:43 | -32.29414 | -54.18287 | 39993 ft | 431 kts | 221° |
| 2026-05-05 21:43 | -32.34368 | -54.22277 | 40005 ft | 430 kts | 221° |
| 2026-05-05 21:44 | -32.39460 | -54.26060 | 40039 ft | 434 kts | 217° |
| 2026-05-05 21:44 | -32.44701 | -54.29620 | 40038 ft | 434 kts | 217° |
| 2026-05-05 21:45 | -32.49931 | -54.33205 | 40042 ft | 434 kts | 218° |
| 2026-05-05 21:45 | -32.55133 | -54.36840 | 40037 ft | 434 kts | 218° |
| 2026-05-05 21:46 | -32.60316 | -54.40495 | 40038 ft | 434 kts | 218° |
| 2026-05-05 21:46 | -32.65477 | -54.44142 | 40039 ft | 435 kts | 218° |
| 2026-05-05 21:47 | -32.70692 | -54.47831 | 40035 ft | 436 kts | 218° |
| 2026-05-05 21:47 | -32.75912 | -54.51523 | 40040 ft | 437 kts | 218° |
| 2026-05-05 21:48 | -32.81146 | -54.55229 | 40037 ft | 438 kts | 218° |
| 2026-05-05 21:48 | -32.86387 | -54.58948 | 40035 ft | 438 kts | 218° |
| 2026-05-05 21:49 | -32.91623 | -54.62670 | 40042 ft | 439 kts | 218° |
| 2026-05-05 21:49 | -32.96869 | -54.66403 | 40033 ft | 439 kts | 218° |
| 2026-05-05 21:50 | -33.02086 | -54.70120 | 40035 ft | 440 kts | 218° |
| 2026-05-05 21:50 | -33.07338 | -54.73867 | 40030 ft | 440 kts | 218° |
| 2026-05-05 21:51 | -33.12590 | -54.77620 | 40033 ft | 441 kts | 218° |
| 2026-05-05 21:51 | -33.17857 | -54.81391 | 40038 ft | 441 kts | 218° |
| 2026-05-05 21:52 | -33.25741 | -54.87037 | 40031 ft | 439 kts | 218° |
| 2026-05-05 21:53 | -33.30976 | -54.90798 | 40029 ft | 439 kts | 218° |
| 2026-05-05 21:53 | -33.35328 | -54.93927 | 40030 ft | 439 kts | 219° |
| 2026-05-05 21:54 | -33.40566 | -54.97698 | 40026 ft | 439 kts | 219° |
| 2026-05-05 21:54 | -33.45796 | -55.01468 | 40037 ft | 439 kts | 219° |
| 2026-05-05 21:55 | -33.51029 | -55.05249 | 40029 ft | 439 kts | 219° |
| 2026-05-05 21:55 | -33.56263 | -55.09037 | 40023 ft | 440 kts | 219° |
| 2026-05-05 21:56 | -33.61511 | -55.12830 | 40029 ft | 440 kts | 219° |
| 2026-05-05 21:56 | -33.66715 | -55.16597 | 40021 ft | 439 kts | 219° |
| 2026-05-05 21:57 | -33.71949 | -55.20393 | 40029 ft | 439 kts | 219° |
| 2026-05-05 21:57 | -33.77184 | -55.24197 | 40031 ft | 439 kts | 219° |
| 2026-05-05 21:58 | -33.82420 | -55.28009 | 40023 ft | 441 kts | 218° |
| 2026-05-05 21:58 | -33.87682 | -55.31846 | 40027 ft | 443 kts | 218° |
| 2026-05-05 21:59 | -33.92958 | -55.35697 | 40022 ft | 443 kts | 218° |
| 2026-05-05 21:59 | -33.98232 | -55.39550 | 40019 ft | 444 kts | 218° |
| 2026-05-05 22:00 | -34.03510 | -55.43412 | 40043 ft | 444 kts | 218° |
| 2026-05-05 22:00 | -34.08790 | -55.47282 | 40023 ft | 445 kts | 218° |
| 2026-05-05 22:01 | -34.14042 | -55.51137 | 40023 ft | 445 kts | 218° |
| 2026-05-05 22:01 | -34.19331 | -55.55025 | 40020 ft | 445 kts | 218° |
| 2026-05-05 22:02 | -34.24623 | -55.58922 | 40022 ft | 445 kts | 218° |
| 2026-05-05 22:02 | -34.29920 | -55.62828 | 40021 ft | 445 kts | 218° |
| 2026-05-05 22:03 | -34.35205 | -55.66731 | 40021 ft | 445 kts | 218° |
| 2026-05-05 22:03 | -34.40490 | -55.70644 | 40017 ft | 445 kts | 218° |
| 2026-05-05 22:04 | -34.45736 | -55.74529 | 40019 ft | 445 kts | 218° |
| 2026-05-05 22:04 | -34.51012 | -55.78441 | 40024 ft | 445 kts | 218° |
| 2026-05-05 22:05 | -34.56293 | -55.82364 | 40020 ft | 445 kts | 218° |
| 2026-05-05 22:05 | -34.61569 | -55.86289 | 40024 ft | 444 kts | 218° |
| 2026-05-05 22:06 | -34.66830 | -55.90209 | 40023 ft | 443 kts | 218° |
| 2026-05-05 22:06 | -34.72085 | -55.94132 | 40020 ft | 443 kts | 218° |
| 2026-05-05 22:07 | -34.77311 | -55.98040 | 40021 ft | 443 kts | 218° |
| 2026-05-05 22:07 | -34.82494 | -56.02070 | 40020 ft | 438 kts | 225° |
| 2026-05-05 22:08 | -34.86777 | -56.07196 | 40020 ft | 430 kts | 232° |
| 2026-05-05 22:08 | -34.90837 | -56.12546 | 40021 ft | 428 kts | 233° |
| 2026-05-05 22:09 | -34.94836 | -56.17853 | 40017 ft | 427 kts | 233° |
| 2026-05-05 22:09 | -34.98849 | -56.23195 | 40014 ft | 427 kts | 233° |
| 2026-05-05 22:10 | -35.02859 | -56.28542 | 40003 ft | 427 kts | 233° |
| 2026-05-05 22:10 | -35.06866 | -56.33895 | 40010 ft | 427 kts | 233° |
| 2026-05-05 22:11 | -35.10871 | -56.39252 | 40005 ft | 427 kts | 233° |
| 2026-05-05 22:11 | -35.14873 | -56.44614 | 40003 ft | 427 kts | 233° |
| 2026-05-05 22:12 | -35.18871 | -56.49980 | 40004 ft | 427 kts | 233° |
| 2026-05-05 22:12 | -35.22866 | -56.55350 | 40003 ft | 427 kts | 233° |
| 2026-05-05 22:13 | -35.26862 | -56.60729 | 40013 ft | 427 kts | 233° |
| 2026-05-05 22:13 | -35.30832 | -56.66083 | 40007 ft | 427 kts | 233° |
| 2026-05-05 22:14 | -35.34830 | -56.71481 | 40005 ft | 428 kts | 233° |
| 2026-05-05 22:14 | -35.38826 | -56.76886 | 40006 ft | 428 kts | 233° |
| 2026-05-05 22:15 | -35.42819 | -56.82296 | 40005 ft | 427 kts | 233° |
| 2026-05-05 22:15 | -35.46806 | -56.87706 | 40008 ft | 427 kts | 233° |
| 2026-05-05 22:16 | -35.50791 | -56.93122 | 39989 ft | 428 kts | 233° |
| 2026-05-05 22:16 | -35.54752 | -56.98514 | 40006 ft | 428 kts | 233° |
| 2026-05-05 22:17 | -35.58735 | -57.03946 | 39989 ft | 428 kts | 233° |
| 2026-05-05 22:17 | -35.62718 | -57.09384 | 39998 ft | 428 kts | 233° |
| 2026-05-05 22:18 | -35.66694 | -57.14823 | 40006 ft | 427 kts | 233° |
| 2026-05-05 22:18 | -35.70664 | -57.20262 | 39998 ft | 427 kts | 233° |
| 2026-05-05 22:19 | -35.74629 | -57.25703 | 39997 ft | 427 kts | 233° |
| 2026-05-05 22:19 | -35.78587 | -57.31144 | 39997 ft | 427 kts | 233° |
| 2026-05-05 22:20 | -35.82547 | -57.36596 | 39996 ft | 427 kts | 233° |
| 2026-05-05 22:20 | -35.86502 | -57.42049 | 39994 ft | 426 kts | 233° |
| 2026-05-05 22:21 | -35.90426 | -57.47469 | 39990 ft | 426 kts | 233° |
| 2026-05-05 22:21 | -35.94371 | -57.52928 | 39990 ft | 426 kts | 233° |
| 2026-05-05 22:22 | -35.98316 | -57.58393 | 40020 ft | 426 kts | 234° |
| 2026-05-05 22:22 | -36.02249 | -57.63852 | 39990 ft | 425 kts | 234° |
| 2026-05-05 22:23 | -36.06173 | -57.69307 | 39987 ft | 424 kts | 234° |
| 2026-05-05 22:23 | -36.10091 | -57.74763 | 39983 ft | 424 kts | 234° |
| 2026-05-05 22:24 | -36.14010 | -57.80229 | 39984 ft | 424 kts | 234° |
| 2026-05-05 22:24 | -36.17923 | -57.85696 | 39986 ft | 424 kts | 234° |
| 2026-05-05 22:25 | -36.21833 | -57.91167 | 39986 ft | 424 kts | 234° |
| 2026-05-05 22:25 | -36.25717 | -57.96611 | 39983 ft | 424 kts | 234° |
| 2026-05-05 22:26 | -36.29615 | -58.02082 | 39994 ft | 424 kts | 234° |
| 2026-05-05 22:26 | -36.33514 | -58.07565 | 39976 ft | 424 kts | 234° |
| 2026-05-05 22:27 | -36.37410 | -58.13052 | 39992 ft | 423 kts | 234° |
| 2026-05-05 22:27 | -36.41288 | -58.18524 | 39989 ft | 422 kts | 234° |
| 2026-05-05 22:28 | -36.45162 | -58.23998 | 39984 ft | 422 kts | 234° |
| 2026-05-05 22:28 | -36.49031 | -58.29476 | 39989 ft | 421 kts | 234° |
| 2026-05-05 22:29 | -36.52895 | -58.34953 | 39989 ft | 421 kts | 234° |
| 2026-05-05 22:29 | -36.56759 | -58.40441 | 39986 ft | 421 kts | 234° |
| 2026-05-05 22:30 | -36.60621 | -58.45935 | 39989 ft | 421 kts | 234° |
| 2026-05-05 22:30 | -36.64472 | -58.51421 | 39987 ft | 420 kts | 234° |
| 2026-05-05 22:31 | -36.68294 | -58.56875 | 39986 ft | 420 kts | 234° |
| 2026-05-05 22:31 | -36.72130 | -58.62359 | 39985 ft | 420 kts | 234° |
| 2026-05-05 22:32 | -36.75967 | -58.67854 | 39985 ft | 420 kts | 234° |
| 2026-05-05 22:32 | -36.79807 | -58.73361 | 39985 ft | 420 kts | 234° |
| 2026-05-05 22:33 | -36.83637 | -58.78865 | 39988 ft | 420 kts | 235° |
| 2026-05-05 22:33 | -36.87468 | -58.84378 | 39985 ft | 420 kts | 235° |
| 2026-05-05 22:34 | -36.91293 | -58.89891 | 39990 ft | 420 kts | 235° |
| 2026-05-05 22:34 | -36.95094 | -58.95379 | 39985 ft | 420 kts | 235° |
| 2026-05-05 22:35 | -36.98916 | -59.00907 | 39987 ft | 420 kts | 235° |
| 2026-05-05 22:35 | -37.02734 | -59.06438 | 39989 ft | 419 kts | 234° |
| 2026-05-05 22:36 | -37.06532 | -59.11948 | 40024 ft | 418 kts | 234° |
| 2026-05-05 22:36 | -37.10320 | -59.17454 | 39993 ft | 417 kts | 235° |
| 2026-05-05 22:37 | -37.14080 | -59.22930 | 39993 ft | 416 kts | 235° |
| 2026-05-05 22:37 | -37.17853 | -59.28432 | 39993 ft | 416 kts | 235° |
| 2026-05-05 22:38 | -37.21622 | -59.33939 | 39994 ft | 416 kts | 235° |
| 2026-05-05 22:38 | -37.25388 | -59.39450 | 39992 ft | 416 kts | 235° |
| 2026-05-05 22:39 | -37.29151 | -59.44965 | 39987 ft | 416 kts | 235° |
| 2026-05-05 22:39 | -37.32911 | -59.50485 | 39982 ft | 416 kts | 235° |
| 2026-05-05 22:40 | -37.36672 | -59.56016 | 39981 ft | 416 kts | 235° |
| 2026-05-05 22:40 | -37.40422 | -59.61542 | 39988 ft | 416 kts | 235° |
| 2026-05-05 22:41 | -37.44175 | -59.67079 | 39983 ft | 415 kts | 235° |
| 2026-05-05 22:41 | -37.47921 | -59.72617 | 39982 ft | 415 kts | 235° |
| 2026-05-05 22:42 | -37.51664 | -59.78160 | 39983 ft | 415 kts | 235° |
| 2026-05-05 22:42 | -37.55380 | -59.83671 | 39979 ft | 415 kts | 235° |
| 2026-05-05 22:43 | -37.59118 | -59.89224 | 39991 ft | 415 kts | 236° |
| 2026-05-05 22:43 | -37.62850 | -59.94778 | 39966 ft | 415 kts | 236° |
| 2026-05-05 22:44 | -37.66588 | -60.00350 | 39985 ft | 415 kts | 236° |
| 2026-05-05 22:44 | -37.69686 | -60.04976 | 39966 ft | 415 kts | 236° |
| 2026-05-05 22:45 | -37.73412 | -60.10547 | 39982 ft | 415 kts | 236° |
| 2026-05-05 22:45 | -37.77133 | -60.16122 | 39981 ft | 415 kts | 236° |
| 2026-05-05 22:46 | -37.80849 | -60.21696 | 39980 ft | 414 kts | 236° |
| 2026-05-05 22:46 | -37.84551 | -60.27261 | 39977 ft | 413 kts | 236° |
| 2026-05-05 22:47 | -37.87155 | -60.31182 | 39979 ft | 413 kts | 236° |
| 2026-05-05 22:47 | -37.88999 | -60.33958 | 39808 ft | 408 kts | 236° |
| 2026-05-05 22:47 | -37.90826 | -60.36711 | 39128 ft | 408 kts | 236° |
| 2026-05-05 22:47 | -37.92654 | -60.39473 | 38393 ft | 409 kts | 237° |
| 2026-05-05 22:48 | -37.94480 | -60.42233 | 37481 ft | 410 kts | 237° |
| 2026-05-05 22:48 | -37.96300 | -60.44990 | 36440 ft | 416 kts | 237° |
| 2026-05-05 22:48 | -37.98169 | -60.47822 | 35386 ft | 422 kts | 237° |
| 2026-05-05 22:48 | -38.00071 | -60.50708 | 34320 ft | 429 kts | 237° |
| 2026-05-05 22:49 | -38.01998 | -60.53632 | 33196 ft | 435 kts | 237° |
| 2026-05-05 22:49 | -38.03959 | -60.56608 | 32029 ft | 441 kts | 236° |
| 2026-05-05 22:49 | -38.05939 | -60.59615 | 30896 ft | 447 kts | 236° |
| 2026-05-05 22:49 | -38.07944 | -60.62663 | 29694 ft | 453 kts | 236° |
| 2026-05-05 22:50 | -38.09971 | -60.65744 | 28712 ft | 454 kts | 236° |
| 2026-05-05 22:50 | -38.11980 | -60.68795 | 28032 ft | 447 kts | 236° |
| 2026-05-05 22:50 | -38.13960 | -60.71805 | 27395 ft | 441 kts | 236° |
| 2026-05-05 22:50 | -38.15913 | -60.74782 | 26730 ft | 435 kts | 236° |
| 2026-05-05 22:51 | -38.17838 | -60.77720 | 26072 ft | 430 kts | 236° |
| 2026-05-05 22:51 | -38.19742 | -60.80630 | 25428 ft | 426 kts | 236° |
| 2026-05-05 22:51 | -38.21622 | -60.83508 | 24790 ft | 421 kts | 236° |
| 2026-05-05 22:51 | -38.23484 | -60.86359 | 24158 ft | 416 kts | 236° |
| 2026-05-05 22:52 | -38.25324 | -60.89180 | 23522 ft | 412 kts | 236° |
| 2026-05-05 22:52 | -38.27113 | -60.91923 | 23136 ft | 406 kts | 236° |
| 2026-05-05 22:52 | -38.28916 | -60.94696 | 22874 ft | 407 kts | 236° |
| 2026-05-05 22:52 | -38.30720 | -60.97471 | 22597 ft | 406 kts | 236° |
| 2026-05-05 22:53 | -38.32519 | -61.00239 | 22325 ft | 404 kts | 236° |
| 2026-05-05 22:53 | -38.34303 | -61.02986 | 22079 ft | 402 kts | 236° |
| 2026-05-05 22:53 | -38.36082 | -61.05726 | 21823 ft | 400 kts | 236° |
| 2026-05-05 22:53 | -38.37983 | -61.08331 | 21565 ft | 403 kts | 230° |
| 2026-05-05 22:54 | -38.40045 | -61.10755 | 21317 ft | 403 kts | 228° |
| 2026-05-05 22:54 | -38.42120 | -61.13136 | 21070 ft | 401 kts | 228° |
| 2026-05-05 22:54 | -38.44189 | -61.15511 | 20816 ft | 399 kts | 228° |
| 2026-05-05 22:54 | -38.46250 | -61.17883 | 20586 ft | 397 kts | 228° |
| 2026-05-05 22:55 | -38.48295 | -61.20241 | 20350 ft | 394 kts | 229° |
| 2026-05-05 22:55 | -38.50317 | -61.22576 | 20112 ft | 391 kts | 229° |
| 2026-05-05 22:55 | -38.52333 | -61.24908 | 19866 ft | 389 kts | 229° |
| 2026-05-05 22:55 | -38.54332 | -61.27223 | 19622 ft | 387 kts | 229° |
| 2026-05-05 22:56 | -38.56325 | -61.29533 | 19381 ft | 386 kts | 229° |
| 2026-05-05 22:56 | -38.58282 | -61.31804 | 19147 ft | 384 kts | 229° |
| 2026-05-05 22:56 | -38.60259 | -61.34099 | 18918 ft | 383 kts | 229° |
| 2026-05-05 22:56 | -38.62223 | -61.36389 | 18692 ft | 380 kts | 230° |
| 2026-05-05 22:57 | -38.63997 | -61.38838 | 18454 ft | 372 kts | 238° |
| 2026-05-05 22:57 | -38.65327 | -61.41629 | 18211 ft | 364 kts | 248° |
| 2026-05-05 22:57 | -38.66330 | -61.44588 | 17958 ft | 361 kts | 251° |
| 2026-05-05 22:57 | -38.67269 | -61.47564 | 17705 ft | 360 kts | 251° |
| 2026-05-05 22:58 | -38.68202 | -61.50532 | 17433 ft | 359 kts | 251° |
| 2026-05-05 22:58 | -38.69134 | -61.53486 | 17166 ft | 358 kts | 251° |
| 2026-05-05 22:58 | -38.70069 | -61.56433 | 16919 ft | 357 kts | 251° |
| 2026-05-05 22:58 | -38.70999 | -61.59372 | 16682 ft | 354 kts | 251° |
| 2026-05-05 22:59 | -38.71902 | -61.62223 | 16550 ft | 337 kts | 251° |
| 2026-05-05 22:59 | -38.72762 | -61.64930 | 16415 ft | 320 kts | 251° |
| 2026-05-05 22:59 | -38.73567 | -61.67471 | 16288 ft | 304 kts | 251° |
| 2026-05-05 22:59 | -38.74349 | -61.69945 | 16154 ft | 288 kts | 251° |
| 2026-05-05 23:00 | -38.75771 | -61.74451 | 15889 ft | 261 kts | 251° |
| 2026-05-05 23:00 | -38.76435 | -61.76557 | 15754 ft | 249 kts | 252° |
| 2026-05-05 23:00 | -38.77066 | -61.78560 | 15624 ft | 236 kts | 252° |
| 2026-05-05 23:01 | -38.77666 | -61.80468 | 15493 ft | 225 kts | 252° |
| 2026-05-05 23:01 | -38.78241 | -61.82301 | 15367 ft | 221 kts | 252° |
| 2026-05-05 23:01 | -38.78812 | -61.84127 | 15247 ft | 221 kts | 252° |
| 2026-05-05 23:01 | -38.79384 | -61.85956 | 15126 ft | 221 kts | 252° |
| 2026-05-05 23:02 | -38.79955 | -61.87780 | 14988 ft | 220 kts | 252° |
| 2026-05-05 23:02 | -38.80526 | -61.89601 | 14881 ft | 220 kts | 252° |
| 2026-05-05 23:02 | -38.81095 | -61.91420 | 14740 ft | 220 kts | 252° |
| 2026-05-05 23:02 | -38.81655 | -61.93222 | 14609 ft | 218 kts | 252° |
| 2026-05-05 23:03 | -38.82029 | -61.95094 | 14489 ft | 216 kts | 265° |
| 2026-05-05 23:03 | -38.81918 | -61.97007 | 14364 ft | 218 kts | 281° |
| 2026-05-05 23:03 | -38.81249 | -61.98784 | 14246 ft | 227 kts | 299° |
| 2026-05-05 23:03 | -38.80041 | -62.00170 | 14125 ft | 243 kts | 319° |
| 2026-05-05 23:04 | -38.78371 | -62.00863 | 13997 ft | 266 kts | 343° |
| 2026-05-05 23:04 | -38.76459 | -62.00508 | 13892 ft | 295 kts | 12° |
| 2026-05-05 23:04 | -38.74766 | -61.98876 | 13756 ft | 319 kts | 46° |
| 2026-05-05 23:04 | -38.73709 | -61.96334 | 13648 ft | 327 kts | 65° |
| 2026-05-05 23:05 | -38.72894 | -61.93600 | 13512 ft | 329 kts | 65° |
| 2026-05-05 23:05 | -38.72045 | -61.90871 | 13369 ft | 328 kts | 64° |
| 2026-05-05 23:05 | -38.71405 | -61.88074 | 13236 ft | 330 kts | 86° |
| 2026-05-05 23:05 | -38.71726 | -61.85231 | 13122 ft | 318 kts | 120° |
| 2026-05-05 23:06 | -38.72979 | -61.83065 | 12997 ft | 293 kts | 153° |
| 2026-05-05 23:06 | -38.74706 | -61.82112 | 12869 ft | 261 kts | 187° |
| 2026-05-05 23:06 | -38.76410 | -61.82356 | 12751 ft | 238 kts | 209° |
| 2026-05-05 23:06 | -38.77828 | -61.83309 | 12625 ft | 225 kts | 226° |
| 2026-05-05 23:07 | -38.78852 | -61.84751 | 12497 ft | 216 kts | 243° |
| 2026-05-05 23:07 | -38.79506 | -61.86466 | 12371 ft | 213 kts | 250° |
| 2026-05-05 23:07 | -38.80062 | -61.88226 | 12234 ft | 213 kts | 250° |
| 2026-05-05 23:07 | -38.80620 | -61.89990 | 12109 ft | 213 kts | 250° |
| 2026-05-05 23:08 | -38.81186 | -61.91750 | 11985 ft | 213 kts | 250° |
| 2026-05-05 23:08 | -38.81741 | -61.93507 | 11859 ft | 212 kts | 252° |
| 2026-05-05 23:08 | -38.82028 | -61.95350 | 11731 ft | 212 kts | 267° |
| 2026-05-05 23:08 | -38.81782 | -61.97218 | 11598 ft | 217 kts | 285° |
| 2026-05-05 23:09 | -38.80961 | -61.98858 | 11482 ft | 230 kts | 305° |
| 2026-05-05 23:09 | -38.79546 | -62.00016 | 11354 ft | 251 kts | 329° |
| 2026-05-05 23:09 | -38.77761 | -62.00240 | 11228 ft | 277 kts | 359° |
| 2026-05-05 23:09 | -38.75943 | -61.99215 | 11100 ft | 300 kts | 33° |
| 2026-05-05 23:10 | -38.74671 | -61.97046 | 11007 ft | 311 kts | 64° |
| 2026-05-05 23:10 | -38.73863 | -61.94464 | 10863 ft | 314 kts | 69° |
| 2026-05-05 23:10 | -38.73074 | -61.91853 | 10758 ft | 314 kts | 66° |
| 2026-05-05 23:10 | -38.72272 | -61.89260 | 10645 ft | 313 kts | 71° |
| 2026-05-05 23:11 | -38.72075 | -61.86531 | 10515 ft | 305 kts | 105° |
| 2026-05-05 23:11 | -38.72895 | -61.84160 | 10413 ft | 282 kts | 140° |
| 2026-05-05 23:11 | -38.74406 | -61.82831 | 10283 ft | 251 kts | 175° |
| 2026-05-05 23:11 | -38.76058 | -61.82642 | 10172 ft | 231 kts | 198° |
| 2026-05-05 23:12 | -38.77528 | -61.83257 | 10060 ft | 217 kts | 217° |
| 2026-05-05 23:12 | -38.78648 | -61.84481 | 9932 ft | 209 kts | 236° |
| 2026-05-05 23:12 | -38.79358 | -61.86082 | 9821 ft | 206 kts | 247° |
| 2026-05-05 23:12 | -38.79911 | -61.87781 | 9689 ft | 207 kts | 248° |
| 2026-05-05 23:13 | -38.80454 | -61.89490 | 9556 ft | 207 kts | 248° |
| 2026-05-05 23:13 | -38.81006 | -61.91202 | 9428 ft | 208 kts | 248° |
| 2026-05-05 23:13 | -38.81566 | -61.92922 | 9304 ft | 209 kts | 248° |
| 2026-05-05 23:13 | -38.81973 | -61.94710 | 9169 ft | 210 kts | 261° |
| 2026-05-05 23:14 | -38.81868 | -61.96585 | 9043 ft | 216 kts | 281° |
| 2026-05-05 23:14 | -38.81129 | -61.98295 | 8914 ft | 228 kts | 304° |
| 2026-05-05 23:14 | -38.79787 | -61.99479 | 8782 ft | 246 kts | 330° |
| 2026-05-05 23:14 | -38.78036 | -61.99723 | 8665 ft | 266 kts | 0° |
| 2026-05-05 23:15 | -38.76314 | -61.98745 | 8519 ft | 283 kts | 35° |
| 2026-05-05 23:15 | -38.75156 | -61.96686 | 8413 ft | 289 kts | 64° |
| 2026-05-05 23:15 | -38.74397 | -61.94304 | 8279 ft | 289 kts | 68° |
| 2026-05-05 23:15 | -38.73663 | -61.91908 | 8153 ft | 288 kts | 67° |
| 2026-05-05 23:16 | -38.72914 | -61.89540 | 8035 ft | 286 kts | 68° |
| 2026-05-05 23:16 | -38.72542 | -61.87062 | 7895 ft | 283 kts | 96° |
| 2026-05-05 23:16 | -38.73154 | -61.84756 | 7768 ft | 269 kts | 132° |
| 2026-05-05 23:16 | -38.74550 | -61.83320 | 7646 ft | 252 kts | 165° |
| 2026-05-05 23:17 | -38.76189 | -61.82944 | 7532 ft | 238 kts | 191° |
| 2026-05-05 23:17 | -38.77722 | -61.83525 | 7413 ft | 226 kts | 216° |
| 2026-05-05 23:17 | -38.78852 | -61.84862 | 7290 ft | 220 kts | 239° |
| 2026-05-05 23:17 | -38.79546 | -61.86604 | 7172 ft | 219 kts | 249° |
| 2026-05-05 23:18 | -38.80125 | -61.88416 | 7051 ft | 220 kts | 250° |
| 2026-05-05 23:18 | -38.80703 | -61.90238 | 6936 ft | 221 kts | 249° |
| 2026-05-05 23:18 | -38.81291 | -61.92061 | 6818 ft | 221 kts | 249° |
| 2026-05-05 23:18 | -38.81837 | -61.93906 | 6692 ft | 221 kts | 256° |
| 2026-05-05 23:19 | -38.81941 | -61.95851 | 6570 ft | 220 kts | 279° |
| 2026-05-05 23:19 | -38.81353 | -61.97650 | 6447 ft | 223 kts | 304° |
| 2026-05-05 23:19 | -38.80134 | -61.98904 | 6328 ft | 231 kts | 332° |
| 2026-05-05 23:19 | -38.78536 | -61.99261 | 6203 ft | 241 kts | 1° |
| 2026-05-05 23:20 | -38.76944 | -61.98513 | 6074 ft | 251 kts | 32° |
| 2026-05-05 23:20 | -38.75827 | -61.96785 | 5951 ft | 257 kts | 61° |
| 2026-05-05 23:20 | -38.75115 | -61.94670 | 5840 ft | 259 kts | 66° |
| 2026-05-05 23:20 | -38.74453 | -61.92565 | 5692 ft | 257 kts | 66° |
| 2026-05-05 23:21 | -38.73767 | -61.90452 | 5575 ft | 256 kts | 66° |
| 2026-05-05 23:21 | -38.73158 | -61.88317 | 5423 ft | 255 kts | 76° |
| 2026-05-05 23:21 | -38.73167 | -61.86081 | 5305 ft | 252 kts | 108° |
| 2026-05-05 23:21 | -38.74063 | -61.84228 | 5209 ft | 245 kts | 141° |
| 2026-05-05 23:22 | -38.75542 | -61.83244 | 5149 ft | 239 kts | 171° |
| 2026-05-05 23:22 | -38.77162 | -61.83314 | 5087 ft | 233 kts | 200° |
| 2026-05-05 23:22 | -38.78522 | -61.84361 | 5026 ft | 228 kts | 227° |
| 2026-05-05 23:22 | -38.79369 | -61.86060 | 4965 ft | 227 kts | 246° |
| 2026-05-05 23:23 | -38.79982 | -61.87931 | 4907 ft | 228 kts | 248° |
| 2026-05-05 23:23 | -38.80576 | -61.89820 | 4856 ft | 228 kts | 248° |
| 2026-05-05 23:23 | -38.81180 | -61.91710 | 4802 ft | 229 kts | 248° |
| 2026-05-05 23:23 | -38.81764 | -61.93609 | 4715 ft | 229 kts | 252° |
| 2026-05-05 23:24 | -38.81935 | -61.95631 | 4652 ft | 230 kts | 278° |
| 2026-05-05 23:24 | -38.81324 | -61.97496 | 4597 ft | 231 kts | 308° |
| 2026-05-05 23:24 | -38.80032 | -61.98702 | 4533 ft | 234 kts | 338° |
| 2026-05-05 23:24 | -38.78416 | -61.98890 | 4468 ft | 238 kts | 9° |
| 2026-05-05 23:25 | -38.76936 | -61.97971 | 4393 ft | 241 kts | 41° |
| 2026-05-05 23:25 | -38.75985 | -61.96219 | 4344 ft | 242 kts | 64° |
| 2026-05-05 23:25 | -38.75334 | -61.94229 | 4282 ft | 243 kts | 68° |
| 2026-05-05 23:25 | -38.74703 | -61.92228 | 4225 ft | 242 kts | 67° |
| 2026-05-05 23:26 | -38.74056 | -61.90230 | 4162 ft | 242 kts | 67° |
| 2026-05-05 23:26 | -38.73472 | -61.88207 | 4087 ft | 243 kts | 76° |
| 2026-05-05 23:26 | -38.73457 | -61.86075 | 4005 ft | 241 kts | 106° |
| 2026-05-05 23:26 | -38.74314 | -61.84275 | 3953 ft | 238 kts | 140° |
| 2026-05-05 23:27 | -38.75759 | -61.83328 | 3889 ft | 234 kts | 171° |
| 2026-05-05 23:27 | -38.77357 | -61.83451 | 3824 ft | 231 kts | 201° |
| 2026-05-05 23:27 | -38.78656 | -61.84556 | 3753 ft | 218 kts | 231° |
| 2026-05-05 23:27 | -38.79391 | -61.86148 | 3685 ft | 207 kts | 247° |
| 2026-05-05 23:28 | -38.79944 | -61.87845 | 3544 ft | 205 kts | 249° |
| 2026-05-05 23:28 | -38.80479 | -61.89542 | 3383 ft | 205 kts | 249° |
| 2026-05-05 23:28 | -38.81021 | -61.91234 | 3202 ft | 205 kts | 249° |
| 2026-05-05 23:28 | -38.81566 | -61.92923 | 3050 ft | 203 kts | 249° |
| 2026-05-05 23:29 | -38.82007 | -61.94567 | 2978 ft | 187 kts | 253° |
| 2026-05-05 23:29 | -38.82376 | -61.96144 | 2994 ft | 184 kts | 254° |
| 2026-05-05 23:29 | -38.82737 | -61.97714 | 2952 ft | 183 kts | 254° |
| 2026-05-05 23:29 | -38.83099 | -61.99277 | 2908 ft | 182 kts | 255° |
| 2026-05-05 23:30 | -38.83451 | -62.00798 | 2841 ft | 170 kts | 255° |
| 2026-05-05 23:30 | -38.83672 | -62.01741 | 2758 ft | 164 kts | 255° |
| 2026-05-05 23:30 | -38.83990 | -62.03141 | 2627 ft | 163 kts | 256° |
| 2026-05-05 23:30 | -38.83988 | -62.05035 | 2454 ft | 162 kts | 290° |
| 2026-05-05 23:31 | -38.83620 | -62.05878 | 2397 ft | 159 kts | 309° |
| 2026-05-05 23:31 | -38.82690 | -62.07198 | 2247 ft | 143 kts | 316° |
| 2026-05-05 23:31 | -38.82226 | -62.07806 | 2162 ft | 140 kts | 316° |
| 2026-05-05 23:31 | -38.81545 | -62.08704 | 2041 ft | 141 kts | 316° |
| 2026-05-05 23:32 | -38.80860 | -62.09615 | 1911 ft | 142 kts | 315° |
| 2026-05-05 23:32 | -38.80180 | -62.10518 | 1811 ft | 142 kts | 316° |
| 2026-05-05 23:32 | -38.79429 | -62.11391 | 1472 ft | 152 kts | 318° |
| 2026-05-05 23:32 | -38.78683 | -62.12301 | 1309 ft | 144 kts | 317° |
| 2026-05-05 23:33 | -38.77924 | -62.13183 | 1012 ft | 144 kts | 322° |
| 2026-05-05 23:33 | -38.77073 | -62.13827 | 915 ft | 142 kts | 345° |
| 2026-05-05 23:33 | -38.76099 | -62.14120 | 702 ft | 149 kts | 351° |
| 2026-05-05 23:33 | -38.75124 | -62.14480 | 594 ft | 140 kts | 343° |
| 2026-05-05 23:34 | -38.74180 | -62.14819 | 392 ft | 141 kts | 347° |
| 2026-05-05 23:34 | -38.73246 | -62.15161 | 252 ft | 135 kts | 345° |
| 2026-05-05 23:34 | -38.72529 | -62.15425 | 252 ft | 68 kts | 347° |
| 2026-05-05 23:34 | -38.72343 | -62.15485 | 252 ft | 7 kts | 343° |
| 2026-05-05 23:35 | -38.72266 | -62.15513 | 252 ft | 14 kts | 344° |
| 2026-05-05 23:35 | -38.72148 | -62.15557 | 251 ft | 23 kts | 343° |
| 2026-05-05 23:35 | -38.71992 | -62.15683 | 250 ft | 29 kts | 316° |
| 2026-05-05 23:35 | -38.71850 | -62.15872 | 251 ft | 27 kts | 296° |
| 2026-05-05 23:36 | -38.71893 | -62.15979 | 253 ft | 8 kts | 155° |
| 2026-05-05 23:36 | -38.71965 | -62.15942 | 252 ft | 15 kts | 162° |
| 2026-05-05 23:36 | -38.72097 | -62.15896 | 251 ft | 24 kts | 164° |
| 2026-05-05 23:36 | -38.72280 | -62.15833 | 251 ft | 31 kts | 163° |
| 2026-05-05 23:37 | -38.72512 | -62.15798 | 251 ft | 37 kts | 184° |
| 2026-05-05 23:37 | -38.72786 | -62.15826 | 251 ft | 42 kts | 188° |
| 2026-05-05 23:37 | -38.73036 | -62.15834 | 252 ft | 24 kts | 182° |
| 2026-05-05 23:37 | -38.73159 | -62.15892 | 252 ft | 19 kts | 236° |
| 2026-05-05 23:38 | -38.73223 | -62.16024 | 252 ft | 0 kts | 251° |